»·PEaware :: N555TT M94-S36

N555TT :: M94-S36

FLIGHT INFORMATION

Flight Status: Arrived
Operator: Privately registered:
United States
More flights under this callsign
Pilot: Chad L. (27474)
Aircraft: MOONEY M-20K/M ENCORE BRAVO
(M20T)
More flights by this aircraft type
Origin: M94 Desert Aire
United States
Destination: S36 Norman Grier Field
United States
More flights between these airports :: More routes between these airports
Route: PAPPS YKM
File this flight plan on PilotEdge
Remarks:
Altitude:
(Current/Filed)
10,500ft
Speed:
(Current/Filed)
250kts
Departed: 12-May-20 08:41 PM
Arrived: 12-May-20 09:25 PM
Distance/Time
Traveled:
97nm/0:43
Distance/Time
To Go:
Arrived

Flight Plot

Page will automatically refresh every two minutes.

Flight plan parsing failed; only flown route is shown


Map Options




Map Legend


Flown Route
Filed Route
Departure Airport
Arrival Airport
Navaid (VOR, NDB)
Fix

Horizontal Profiles

Position Reports

Time Latitude Longitude Heading Altitude Ground
Speed
12-May-20 20:36 46.686973 -119.920515 185 566ft 0kts
12-May-20 20:37 46.686508 -119.919275 114 571ft 5kts
12-May-20 20:38 46.684898 -119.914365 100 588ft 16kts
12-May-20 20:39 46.684774 -119.913964 133 589ft 7kts
12-May-20 20:40 46.690953 -119.929286 297 922ft 94kts
12-May-20 20:41 46.675206 -119.934899 114 2052ft 130kts
12-May-20 20:42 46.661583 -119.885439 135 3264ft 145kts
12-May-20 20:43 46.626110 -119.878148 187 4605ft 129kts
12-May-20 20:44 46.591026 -119.875696 188 6014ft 124kts
12-May-20 20:45 46.557054 -119.872625 188 7427ft 121kts
12-May-20 20:46 46.523471 -119.869419 192 8837ft 118kts
12-May-20 20:47 46.518852 -119.903297 274 10196ft 102kts
12-May-20 20:48 46.523960 -119.955828 275 10489ft 162kts
12-May-20 20:49 46.530904 -120.026722 275 10512ft 185kts
12-May-20 20:50 46.538082 -120.101623 275 10655ft 185kts
12-May-20 20:51 46.544917 -120.176830 272 10694ft 192kts
12-May-20 20:52 46.551916 -120.254725 277 10493ft 202kts
12-May-20 20:53 46.560500 -120.333661 287 10450ft 197kts
12-May-20 20:54 46.588022 -120.402429 297 10506ft 194kts
12-May-20 20:55 46.615953 -120.468994 297 10507ft 190kts
12-May-20 20:56 46.643534 -120.534803 297 10507ft 190kts
12-May-20 20:57 46.671178 -120.600893 297 10507ft 190kts
12-May-20 20:58 46.698615 -120.666634 296 10509ft 191kts
12-May-20 20:59 46.723488 -120.726367 296 10510ft 191kts
12-May-20 21:00 46.751252 -120.793201 296 10510ft 192kts
12-May-20 21:01 46.779179 -120.860575 296 10510ft 192kts
12-May-20 21:02 46.806924 -120.927695 296 10509ft 192kts
12-May-20 21:03 46.834531 -120.994647 296 10515ft 192kts
12-May-20 21:04 46.862311 -121.062182 296 10507ft 194kts
12-May-20 21:05 46.890266 -121.130279 296 10500ft 194kts
12-May-20 21:06 46.913346 -121.199650 254 10490ft 185kts
12-May-20 21:07 46.868269 -121.217960 232 10489ft 184kts
12-May-20 21:08 46.880530 -121.273956 328 10525ft 202kts
12-May-20 21:09 46.927547 -121.323759 314 9940ft 216kts
12-May-20 21:10 46.972943 -121.382393 313 9089ft 217kts
12-May-20 21:11 47.017631 -121.441220 313 8248ft 214kts
12-May-20 21:12 47.061448 -121.499071 315 7423ft 212kts
12-May-20 21:13 47.099895 -121.561779 313 6626ft 210kts
12-May-20 21:14 47.127853 -121.624393 289 6560ft 188kts
12-May-20 21:15 47.149751 -121.693237 288 6559ft 185kts
12-May-20 21:16 47.173016 -121.766418 289 6079ft 182kts
12-May-20 21:17 47.196086 -121.839284 291 4552ft 192kts
12-May-20 21:18 47.205521 -121.912765 295 3562ft 187kts
12-May-20 21:19 47.232136 -121.978623 297 2625ft 187kts
12-May-20 21:20 47.258087 -122.043131 300 1651ft 171kts
12-May-20 21:21 47.282729 -122.087850 337 1304ft 114kts
12-May-20 21:22 47.308898 -122.098443 353 972ft 98kts
12-May-20 21:23 47.333856 -122.102857 356 474ft 59kts
12-May-20 21:24 47.337348 -122.103296 178 474ft 0kts
12-May-20 21:25 47.337348 -122.103296 178 474ft 0kts
12-May-20 21:26 47.337348 -122.103296 178 474ft 0kts

Navigation Log

Ident Type
Flight plan parsing failed, navigation log unavailable